Air Navigation Services of Czech Republic  
Last data update:  15.10.2019 18:25:27 UTC Česká verze
   METEO Page displayed:  15.10.2019 18:25:31 UTC  
help
METAR EDDB 151820Z 10005KT CAVOK 15/14 Q1005 NOSIG=
METAR EDDC 151820Z 18010KT CAVOK 14/10 Q1006 NOSIG=
METAR EDDE 151820Z 23002KT CAVOK 18/13 Q1005 NOSIG=
METAR EDDF 151820Z 22009KT 9999 -RA SCT038 14/13 Q1008 NOSIG=
METAR EDDM 151820Z 26008KT 9999 BKN025 15/12 Q1008 NOSIG=
METAR EDDN 151820Z 16004KT 110V190 9999 FEW019 SCT024 15/13 Q1007 BECMG 26011KT=
METAR EDDP 151820Z 10007KT CAVOK 15/13 Q1005 NOSIG=
METAR EDDT 151820Z VRB02KT CAVOK 15/14 Q1005 NOSIG=
METAR EDQM 151750Z 16005KT 120V210 5000 BR NSC 11/10 Q1007=
METAR EPBY 151800Z 11005KT CAVOK 14/13 Q1007=
METAR EPGD 151800Z 17005KT CAVOK 14/12 Q1008=
METAR EPKK 151800Z VRB01KT CAVOK 15/10 Q1010=
METAR EPKT 151800Z 15005KT 120V200 CAVOK 17/10 Q1010=
METAR EPLL 151800Z 09003KT 070V130 CAVOK 15/12 Q1009=
METAR EPPO 151800Z 09004KT CAVOK 14/11 Q1006=
METAR EPRZ 151800Z 10009KT CAVOK 18/10 Q1013=
METAR EPWA 151800Z 13008KT CAVOK 17/12 Q1010 NOSIG=
METAR EPWR 151800Z 20010KT CAVOK 19/11 Q1007=
METAR LHBP 151800Z 11006KT CAVOK 15/13 Q1014 NOSIG=
METAR LHSM 151745Z AUTO 21005KT CAVOK 17/14 Q1013=
SPECI LKBC 151817Z AUTO 07002KT 0900 FG NCD 08/07 Q1007=
METAR LKCV 151800Z 06003KT 040V100 CAVOK 14/12 Q1007 NOSIG RMK BLU BLU=
METAR LKKB 151800Z 20002KT CAVOK 11/09 Q1007 NOSIG RMK BLU BLU=
METAR LKKU NIL
METAR LKKV 151800Z 12005KT 9000 OVC007 11/10 Q1008 RMK REG QNH 1005=
METAR LKLN 151830Z AUTO 00000KT 8000 BKN018 12/12 Q1007=
METAR LKMT 151800Z 18008KT CAVOK 20/08 Q1009 NOSIG RMK REG QNH 1005=
METAR LKNA 151800Z 12012KT CAVOK 15/12 Q1008 NOSIG RMK BLU BLU=
METAR LKPD 151800Z 08003KT CAVOK 14/11 Q1007 NOSIG RMK BLU BLU=
METAR LKPJ 151800Z AUTO 14006KT CAVOK ///// Q////=
METAR LKPR 151800Z VRB02KT CAVOK 08/07 Q1007 NOSIG RMK REG QNH 1005=
METAR LKTB 151800Z 12011KT CAVOK 18/13 Q1008 NOSIG RMK REG QNH 1005=
METAR LKVO NIL
METAR LOWI 151820Z 05013G23KT 360V130 9999 FEW060 SCT090 BKN120 20/09 Q1008 WS ALL RWY BECMG 27010KT=
METAR LOWL 151820Z 35003KT 3500 BR OVC003 12/12 Q1007 TEMPO 2500=
METAR LOWS 151820Z 11003KT 040V170 CAVOK 13/11 Q1006 NOSIG=
METAR LOWW 151820Z 16019KT CAVOK 18/12 Q1008 NOSIG=
METAR LZIB 151800Z 14012KT CAVOK 19/13 Q1010 NOSIG=
METAR LZKZ 151800Z VRB02KT CAVOK 14/11 Q1015=
METAR LZMC 151800Z 15020G30KT CAVOK 19/12 Q1009=
METAR LZPP 151800Z 14014KT CAVOK 20/10 Q1011=
METAR LZSL 151800Z 33004KT 300V020 CAVOK 13/10 Q1014=
SPECI LZTT 151803Z 21005KT 170V280 CAVOK 13/08 Q1015=
METAR LZZI 151800Z VRB01KT CAVOK 17/09 Q1012=